SBTT/TBT METAR and TAF weather

Enter ICAO airport designator
Station Type Date Time Source
SBTT METAR 2021/04/17 22:00 UTC NOAA

SBTT 172200Z 36002KT 9999 FEW020 29/23 Q1009


Station Type Date Time Source
SBTT Decoded METAR 2021/04/17 22:00 UTC NOAA

Tabatinga, Brazil (SBTT) 03-40S 069-40W
Apr 17, 2021 - 06:00 PM EDT / 2021.04.17 2200 UTC
Wind: from the N (360 degrees) at 2 MPH (2 KT):0
Visibility: greater than 7 mile(s):0
Sky conditions: mostly clear
Temperature: 84 F (29 C)
Dew Point: 73 F (23 C)
Relative Humidity: 70%
Pressure (altimeter): 29.80 in. Hg (1009 hPa)
ob: SBTT 172200Z 36002KT 9999 FEW020 29/23 Q1009
cycle: 22

Station Type Date Time Source
SBTT TAF 2021/04/18 00:00 UTC NOAA

TAF SBTT 172100Z 1800/1824 30005KT 9999 SCT020 FEW025TCU TN23/1808Z TX30/1817Z PROB30 1818/1820 TS BKN020 FEW025CB
RMK PHD

Example: see airport list